<?xml version='1.0' encoding='UTF-8'?>
<gpx version="1.1" creator="https://www.komoot.de" xmlns="http://www.topografix.com/GPX/1/1" xmlns:xsi="http://www.w3.org/2001/XMLSchema-instance" xsi:schemaLocation="http://www.topografix.com/GPX/1/1 http://www.topografix.com/GPX/1/1/gpx.xsd">
  <metadata>
    <name>Wanderung Auf da Sunnaseitn 10km</name>
    <author>
      <link href="https://www.komoot.de">
        <text>komoot</text>
        <type>text/html</type>
      </link>
    </author>
  </metadata>
  <trk>
    <name>Wanderung Auf da Sunnaseitn 10km</name>
    <trkseg>
      <trkpt lat="48.344304" lon="12.130818">
        <ele>467.729367</ele>
        <time>2022-11-01T09:52:02.887Z</time>
      </trkpt>
      <trkpt lat="48.344304" lon="12.130818">
        <ele>467.729367</ele>
        <time>2022-11-01T09:52:02.928Z</time>
      </trkpt>
      <trkpt lat="48.344264" lon="12.131059">
        <ele>467.729367</ele>
        <time>2022-11-01T09:52:19.986Z</time>
      </trkpt>
      <trkpt lat="48.344072" lon="12.132148">
        <ele>467.739806</ele>
        <time>2022-11-01T09:53:37.906Z</time>
      </trkpt>
      <trkpt lat="48.344048" lon="12.132287">
        <ele>467.807962</ele>
        <time>2022-11-01T09:53:48.414Z</time>
      </trkpt>
      <trkpt lat="48.344023" lon="12.132353">
        <ele>467.844014</ele>
        <time>2022-11-01T09:53:53.601Z</time>
      </trkpt>
      <trkpt lat="48.343952" lon="12.132368">
        <ele>467.895207</ele>
        <time>2022-11-01T09:54:00.969Z</time>
      </trkpt>
      <trkpt lat="48.343886" lon="12.132370">
        <ele>467.942343</ele>
        <time>2022-11-01T09:54:07.857Z</time>
      </trkpt>
      <trkpt lat="48.343809" lon="12.132447">
        <ele>468.008359</ele>
        <time>2022-11-01T09:54:17.350Z</time>
      </trkpt>
      <trkpt lat="48.343734" lon="12.132510">
        <ele>468.069693</ele>
        <time>2022-11-01T09:54:26.733Z</time>
      </trkpt>
      <trkpt lat="48.343529" lon="12.132687">
        <ele>468.238459</ele>
        <time>2022-11-01T09:54:50.845Z</time>
      </trkpt>
      <trkpt lat="48.343523" lon="12.132935">
        <ele>468.356235</ele>
        <time>2022-11-01T09:55:08.010Z</time>
      </trkpt>
      <trkpt lat="48.343521" lon="12.132938">
        <ele>468.358251</ele>
        <time>2022-11-01T09:55:08.329Z</time>
      </trkpt>
      <trkpt lat="48.343487" lon="12.132974">
        <ele>468.387937</ele>
        <time>2022-11-01T09:55:12.516Z</time>
      </trkpt>
      <trkpt lat="48.343485" lon="12.132975">
        <ele>468.389442</ele>
        <time>2022-11-01T09:55:12.719Z</time>
      </trkpt>
      <trkpt lat="48.343410" lon="12.132979">
        <ele>468.443028</ele>
        <time>2022-11-01T09:55:20.307Z</time>
      </trkpt>
      <trkpt lat="48.342932" lon="12.132914">
        <ele>468.785724</ele>
        <time>2022-11-01T09:56:09.209Z</time>
      </trkpt>
      <trkpt lat="48.342914" lon="12.132912">
        <ele>468.798612</ele>
        <time>2022-11-01T09:56:11.551Z</time>
      </trkpt>
      <trkpt lat="48.342981" lon="12.132585">
        <ele>468.961010</ele>
        <time>2022-11-01T09:56:34.401Z</time>
      </trkpt>
      <trkpt lat="48.343080" lon="12.132180">
        <ele>468.865848</ele>
        <time>2022-11-01T09:57:03.555Z</time>
      </trkpt>
      <trkpt lat="48.343250" lon="12.131508">
        <ele>468.534382</ele>
        <time>2022-11-01T09:57:51.703Z</time>
      </trkpt>
      <trkpt lat="48.343233" lon="12.131495">
        <ele>468.521156</ele>
        <time>2022-11-01T09:57:53.678Z</time>
      </trkpt>
      <trkpt lat="48.343201" lon="12.131471">
        <ele>468.496357</ele>
        <time>2022-11-01T09:57:57.268Z</time>
      </trkpt>
      <trkpt lat="48.342896" lon="12.131481">
        <ele>468.284769</ele>
        <time>2022-11-01T09:58:28.266Z</time>
      </trkpt>
      <trkpt lat="48.342277" lon="12.131780">
        <ele>467.833867</ele>
        <time>2022-11-01T09:59:35.404Z</time>
      </trkpt>
      <trkpt lat="48.342277" lon="12.131780">
        <ele>467.833867</ele>
        <time>2022-11-01T09:59:35.443Z</time>
      </trkpt>
      <trkpt lat="48.342256" lon="12.131792">
        <ele>467.818287</ele>
        <time>2022-11-01T09:59:37.834Z</time>
      </trkpt>
      <trkpt lat="48.341828" lon="12.132031">
        <ele>467.264143</ele>
        <time>2022-11-01T10:00:24.811Z</time>
      </trkpt>
      <trkpt lat="48.341828" lon="12.132031">
        <ele>467.264143</ele>
        <time>2022-11-01T10:00:25.153Z</time>
      </trkpt>
      <trkpt lat="48.341828" lon="12.132031">
        <ele>467.264143</ele>
        <time>2022-11-01T10:00:25.387Z</time>
      </trkpt>
      <trkpt lat="48.341322" lon="12.132245">
        <ele>466.572268</ele>
        <time>2022-11-01T10:01:19.444Z</time>
      </trkpt>
      <trkpt lat="48.341249" lon="12.132259">
        <ele>466.475399</ele>
        <time>2022-11-01T10:01:27.112Z</time>
      </trkpt>
      <trkpt lat="48.341221" lon="12.132259">
        <ele>466.438542</ele>
        <time>2022-11-01T10:01:30.038Z</time>
      </trkpt>
      <trkpt lat="48.341030" lon="12.132233">
        <ele>466.186097</ele>
        <time>2022-11-01T10:01:49.579Z</time>
      </trkpt>
      <trkpt lat="48.341030" lon="12.132233">
        <ele>466.186097</ele>
        <time>2022-11-01T10:01:49.647Z</time>
      </trkpt>
      <trkpt lat="48.341049" lon="12.132298">
        <ele>466.123969</ele>
        <time>2022-11-01T10:01:54.495Z</time>
      </trkpt>
      <trkpt lat="48.341028" lon="12.132553">
        <ele>465.899150</ele>
        <time>2022-11-01T10:02:12.224Z</time>
      </trkpt>
      <trkpt lat="48.340905" lon="12.132765">
        <ele>465.652937</ele>
        <time>2022-11-01T10:02:31.447Z</time>
      </trkpt>
      <trkpt lat="48.340864" lon="12.132819">
        <ele>465.581209</ele>
        <time>2022-11-01T10:02:37.067Z</time>
      </trkpt>
      <trkpt lat="48.340864" lon="12.132819">
        <ele>465.581209</ele>
        <time>2022-11-01T10:02:37.197Z</time>
      </trkpt>
      <trkpt lat="48.340608" lon="12.133195">
        <ele>465.280587</ele>
        <time>2022-11-01T10:03:13.933Z</time>
      </trkpt>
      <trkpt lat="48.339014" lon="12.135266">
        <ele>464.664198</ele>
        <time>2022-11-01T10:06:46.569Z</time>
      </trkpt>
      <trkpt lat="48.338790" lon="12.135441">
        <ele>464.776633</ele>
        <time>2022-11-01T10:07:12.180Z</time>
      </trkpt>
      <trkpt lat="48.338469" lon="12.135410">
        <ele>464.919918</ele>
        <time>2022-11-01T10:07:44.869Z</time>
      </trkpt>
      <trkpt lat="48.337001" lon="12.134755">
        <ele>466.282685</ele>
        <time>2022-11-01T10:10:24.423Z</time>
      </trkpt>
      <trkpt lat="48.336389" lon="12.134629">
        <ele>467.062495</ele>
        <time>2022-11-01T10:11:29.837Z</time>
      </trkpt>
      <trkpt lat="48.335974" lon="12.134196">
        <ele>467.603369</ele>
        <time>2022-11-01T10:12:22.214Z</time>
      </trkpt>
      <trkpt lat="48.335832" lon="12.134195">
        <ele>467.695316</ele>
        <time>2022-11-01T10:12:37.438Z</time>
      </trkpt>
      <trkpt lat="48.335832" lon="12.134195">
        <ele>467.695316</ele>
        <time>2022-11-01T10:12:37.549Z</time>
      </trkpt>
      <trkpt lat="48.335832" lon="12.134195">
        <ele>467.695316</ele>
        <time>2022-11-01T10:12:37.710Z</time>
      </trkpt>
      <trkpt lat="48.335709" lon="12.134063">
        <ele>467.793149</ele>
        <time>2022-11-01T10:12:53.024Z</time>
      </trkpt>
      <trkpt lat="48.335638" lon="12.133929">
        <ele>467.866908</ele>
        <time>2022-11-01T10:13:04.839Z</time>
      </trkpt>
      <trkpt lat="48.335638" lon="12.133929">
        <ele>467.866908</ele>
        <time>2022-11-01T10:13:04.878Z</time>
      </trkpt>
      <trkpt lat="48.335077" lon="12.133523">
        <ele>468.270012</ele>
        <time>2022-11-01T10:14:08.711Z</time>
      </trkpt>
      <trkpt lat="48.334736" lon="12.133277">
        <ele>468.514890</ele>
        <time>2022-11-01T10:14:47.151Z</time>
      </trkpt>
      <trkpt lat="48.334523" lon="12.133186">
        <ele>468.658263</ele>
        <time>2022-11-01T10:15:09.799Z</time>
      </trkpt>
      <trkpt lat="48.334323" lon="12.133100">
        <ele>468.666679</ele>
        <time>2022-11-01T10:15:30.865Z</time>
      </trkpt>
      <trkpt lat="48.333309" lon="12.132155">
        <ele>468.669852</ele>
        <time>2022-11-01T10:17:31.251Z</time>
      </trkpt>
      <trkpt lat="48.331946" lon="12.130068">
        <ele>470.531364</ele>
        <time>2022-11-01T10:20:51.227Z</time>
      </trkpt>
      <trkpt lat="48.331799" lon="12.129836">
        <ele>470.789611</ele>
        <time>2022-11-01T10:21:15.175Z</time>
      </trkpt>
      <trkpt lat="48.331777" lon="12.129801">
        <ele>470.828423</ele>
        <time>2022-11-01T10:21:18.705Z</time>
      </trkpt>
      <trkpt lat="48.331754" lon="12.129844">
        <ele>470.928590</ele>
        <time>2022-11-01T10:21:22.745Z</time>
      </trkpt>
      <trkpt lat="48.331693" lon="12.129990">
        <ele>471.420518</ele>
        <time>2022-11-01T10:21:35.103Z</time>
      </trkpt>
      <trkpt lat="48.331637" lon="12.130134">
        <ele>471.896440</ele>
        <time>2022-11-01T10:21:47.252Z</time>
      </trkpt>
      <trkpt lat="48.331591" lon="12.130293">
        <ele>472.391121</ele>
        <time>2022-11-01T10:22:00.939Z</time>
      </trkpt>
      <trkpt lat="48.331526" lon="12.130666">
        <ele>473.491159</ele>
        <time>2022-11-01T10:22:29.288Z</time>
      </trkpt>
      <trkpt lat="48.331464" lon="12.131135">
        <ele>474.855314</ele>
        <time>2022-11-01T10:23:05.602Z</time>
      </trkpt>
      <trkpt lat="48.331442" lon="12.131222">
        <ele>475.120855</ele>
        <time>2022-11-01T10:23:13.555Z</time>
      </trkpt>
      <trkpt lat="48.331442" lon="12.131222">
        <ele>475.120855</ele>
        <time>2022-11-01T10:23:14.383Z</time>
      </trkpt>
      <trkpt lat="48.331395" lon="12.131331">
        <ele>475.491487</ele>
        <time>2022-11-01T10:23:24.358Z</time>
      </trkpt>
      <trkpt lat="48.330713" lon="12.132431">
        <ele>479.792754</ele>
        <time>2022-11-01T10:25:22.676Z</time>
      </trkpt>
      <trkpt lat="48.330486" lon="12.132722">
        <ele>481.083497</ele>
        <time>2022-11-01T10:25:56.925Z</time>
      </trkpt>
      <trkpt lat="48.330486" lon="12.132722">
        <ele>481.083497</ele>
        <time>2022-11-01T10:25:57.788Z</time>
      </trkpt>
      <trkpt lat="48.330144" lon="12.133133">
        <ele>482.977920</ele>
        <time>2022-11-01T10:26:48.823Z</time>
      </trkpt>
      <trkpt lat="48.329930" lon="12.133387">
        <ele>484.157640</ele>
        <time>2022-11-01T10:27:19.501Z</time>
      </trkpt>
      <trkpt lat="48.329639" lon="12.133870">
        <ele>486.033036</ele>
        <time>2022-11-01T10:28:08.692Z</time>
      </trkpt>
      <trkpt lat="48.329510" lon="12.134205">
        <ele>486.950586</ele>
        <time>2022-11-01T10:28:36.763Z</time>
      </trkpt>
      <trkpt lat="48.329510" lon="12.134205">
        <ele>486.950586</ele>
        <time>2022-11-01T10:28:37.791Z</time>
      </trkpt>
      <trkpt lat="48.328145" lon="12.133995">
        <ele>491.420484</ele>
        <time>2022-11-01T10:31:10.112Z</time>
      </trkpt>
      <trkpt lat="48.327829" lon="12.134065">
        <ele>492.459042</ele>
        <time>2022-11-01T10:31:45.522Z</time>
      </trkpt>
      <trkpt lat="48.327829" lon="12.134065">
        <ele>492.459042</ele>
        <time>2022-11-01T10:31:46.028Z</time>
      </trkpt>
      <trkpt lat="48.327252" lon="12.137180">
        <ele>498.461155</ele>
        <time>2022-11-01T10:35:46.115Z</time>
      </trkpt>
      <trkpt lat="48.327252" lon="12.137180">
        <ele>498.461155</ele>
        <time>2022-11-01T10:35:49.328Z</time>
      </trkpt>
      <trkpt lat="48.325798" lon="12.137112">
        <ele>499.686781</ele>
        <time>2022-11-01T10:38:15.883Z</time>
      </trkpt>
      <trkpt lat="48.324125" lon="12.137073">
        <ele>496.258285</ele>
        <time>2022-11-01T10:41:12.215Z</time>
      </trkpt>
      <trkpt lat="48.324312" lon="12.135474">
        <ele>494.490227</ele>
        <time>2022-11-01T10:43:03.973Z</time>
      </trkpt>
      <trkpt lat="48.324323" lon="12.135130">
        <ele>494.118961</ele>
        <time>2022-11-01T10:43:27.493Z</time>
      </trkpt>
      <trkpt lat="48.324316" lon="12.134834">
        <ele>493.799666</ele>
        <time>2022-11-01T10:43:47.891Z</time>
      </trkpt>
      <trkpt lat="48.324316" lon="12.134834">
        <ele>493.799666</ele>
        <time>2022-11-01T10:43:48.595Z</time>
      </trkpt>
      <trkpt lat="48.324316" lon="12.134834">
        <ele>493.799666</ele>
        <time>2022-11-01T10:43:49.620Z</time>
      </trkpt>
      <trkpt lat="48.322625" lon="12.135145">
        <ele>491.716456</ele>
        <time>2022-11-01T10:46:45.680Z</time>
      </trkpt>
      <trkpt lat="48.322440" lon="12.135312">
        <ele>491.473646</ele>
        <time>2022-11-01T10:47:07.715Z</time>
      </trkpt>
      <trkpt lat="48.322186" lon="12.136069">
        <ele>491.257638</ele>
        <time>2022-11-01T10:48:04.888Z</time>
      </trkpt>
      <trkpt lat="48.321845" lon="12.136388">
        <ele>491.286380</ele>
        <time>2022-11-01T10:48:46.555Z</time>
      </trkpt>
      <trkpt lat="48.320936" lon="12.136768">
        <ele>491.353904</ele>
        <time>2022-11-01T10:50:21.715Z</time>
      </trkpt>
      <trkpt lat="48.320936" lon="12.136768">
        <ele>491.353904</ele>
        <time>2022-11-01T10:50:23.473Z</time>
      </trkpt>
      <trkpt lat="48.320918" lon="12.136732">
        <ele>491.356048</ele>
        <time>2022-11-01T10:50:26.876Z</time>
      </trkpt>
      <trkpt lat="48.320705" lon="12.135565">
        <ele>490.349824</ele>
        <time>2022-11-01T10:51:50.035Z</time>
      </trkpt>
      <trkpt lat="48.320673" lon="12.135414">
        <ele>490.203937</ele>
        <time>2022-11-01T10:52:01.639Z</time>
      </trkpt>
      <trkpt lat="48.320498" lon="12.134901">
        <ele>489.673197</ele>
        <time>2022-11-01T10:52:41.149Z</time>
      </trkpt>
      <trkpt lat="48.320429" lon="12.134653">
        <ele>489.425731</ele>
        <time>2022-11-01T10:52:59.750Z</time>
      </trkpt>
      <trkpt lat="48.320388" lon="12.134460">
        <ele>489.239224</ele>
        <time>2022-11-01T10:53:14.612Z</time>
      </trkpt>
      <trkpt lat="48.320348" lon="12.134228">
        <ele>489.018601</ele>
        <time>2022-11-01T10:53:30.820Z</time>
      </trkpt>
      <trkpt lat="48.320264" lon="12.133204">
        <ele>488.567767</ele>
        <time>2022-11-01T10:54:42.550Z</time>
      </trkpt>
      <trkpt lat="48.320256" lon="12.133040">
        <ele>488.510492</ele>
        <time>2022-11-01T10:54:53.604Z</time>
      </trkpt>
      <trkpt lat="48.320274" lon="12.132676">
        <ele>488.383361</ele>
        <time>2022-11-01T10:55:18.463Z</time>
      </trkpt>
      <trkpt lat="48.320349" lon="12.131633">
        <ele>488.017968</ele>
        <time>2022-11-01T10:56:29.779Z</time>
      </trkpt>
      <trkpt lat="48.320229" lon="12.130837">
        <ele>487.787344</ele>
        <time>2022-11-01T10:57:25.486Z</time>
      </trkpt>
      <trkpt lat="48.320226" lon="12.130533">
        <ele>487.710490</ele>
        <time>2022-11-01T10:57:45.881Z</time>
      </trkpt>
      <trkpt lat="48.320651" lon="12.128567">
        <ele>486.855416</ele>
        <time>2022-11-01T11:00:05.764Z</time>
      </trkpt>
      <trkpt lat="48.320584" lon="12.128163">
        <ele>486.143507</ele>
        <time>2022-11-01T11:00:34.482Z</time>
      </trkpt>
      <trkpt lat="48.320361" lon="12.127639">
        <ele>485.079808</ele>
        <time>2022-11-01T11:01:17.642Z</time>
      </trkpt>
      <trkpt lat="48.320190" lon="12.127080">
        <ele>484.027752</ele>
        <time>2022-11-01T11:02:01.190Z</time>
      </trkpt>
      <trkpt lat="48.320124" lon="12.126900">
        <ele>483.676302</ele>
        <time>2022-11-01T11:02:15.617Z</time>
      </trkpt>
      <trkpt lat="48.320124" lon="12.126900">
        <ele>483.676302</ele>
        <time>2022-11-01T11:02:15.683Z</time>
      </trkpt>
      <trkpt lat="48.320108" lon="12.126844">
        <ele>483.572090</ele>
        <time>2022-11-01T11:02:20.001Z</time>
      </trkpt>
      <trkpt lat="48.320043" lon="12.126632">
        <ele>483.172938</ele>
        <time>2022-11-01T11:02:36.811Z</time>
      </trkpt>
      <trkpt lat="48.319967" lon="12.126320">
        <ele>482.593001</ele>
        <time>2022-11-01T11:03:00.778Z</time>
      </trkpt>
      <trkpt lat="48.319925" lon="12.126217">
        <ele>482.234296</ele>
        <time>2022-11-01T11:03:09.845Z</time>
      </trkpt>
      <trkpt lat="48.319851" lon="12.126167">
        <ele>481.872098</ele>
        <time>2022-11-01T11:03:18.615Z</time>
      </trkpt>
      <trkpt lat="48.319730" lon="12.126210">
        <ele>481.316999</ele>
        <time>2022-11-01T11:03:32.028Z</time>
      </trkpt>
      <trkpt lat="48.319660" lon="12.126235">
        <ele>480.995783</ele>
        <time>2022-11-01T11:03:40.045Z</time>
      </trkpt>
      <trkpt lat="48.319763" lon="12.125596">
        <ele>479.043745</ele>
        <time>2022-11-01T11:04:28.550Z</time>
      </trkpt>
      <trkpt lat="48.320059" lon="12.124937">
        <ele>476.682769</ele>
        <time>2022-11-01T11:05:26.710Z</time>
      </trkpt>
      <trkpt lat="48.320154" lon="12.124598">
        <ele>475.590613</ele>
        <time>2022-11-01T11:05:53.706Z</time>
      </trkpt>
      <trkpt lat="48.320395" lon="12.123531">
        <ele>473.350136</ele>
        <time>2022-11-01T11:07:14.458Z</time>
      </trkpt>
      <trkpt lat="48.320432" lon="12.123355">
        <ele>473.060311</ele>
        <time>2022-11-01T11:07:27.322Z</time>
      </trkpt>
      <trkpt lat="48.320478" lon="12.123198">
        <ele>472.790932</ele>
        <time>2022-11-01T11:07:39.463Z</time>
      </trkpt>
      <trkpt lat="48.320478" lon="12.123198">
        <ele>472.790932</ele>
        <time>2022-11-01T11:07:39.467Z</time>
      </trkpt>
      <trkpt lat="48.320509" lon="12.123101">
        <ele>472.621953</ele>
        <time>2022-11-01T11:07:47.093Z</time>
      </trkpt>
      <trkpt lat="48.320607" lon="12.122862">
        <ele>472.181082</ele>
        <time>2022-11-01T11:08:06.558Z</time>
      </trkpt>
      <trkpt lat="48.320736" lon="12.122599">
        <ele>471.667953</ele>
        <time>2022-11-01T11:08:29.522Z</time>
      </trkpt>
      <trkpt lat="48.320769" lon="12.122619">
        <ele>471.583943</ele>
        <time>2022-11-01T11:08:33.222Z</time>
      </trkpt>
      <trkpt lat="48.321135" lon="12.122777">
        <ele>470.684832</ele>
        <time>2022-11-01T11:09:12.161Z</time>
      </trkpt>
      <trkpt lat="48.321740" lon="12.122896">
        <ele>470.182046</ele>
        <time>2022-11-01T11:10:13.980Z</time>
      </trkpt>
      <trkpt lat="48.322775" lon="12.123021">
        <ele>469.821820</ele>
        <time>2022-11-01T11:11:58.422Z</time>
      </trkpt>
      <trkpt lat="48.322900" lon="12.123036">
        <ele>469.778316</ele>
        <time>2022-11-01T11:12:11.016Z</time>
      </trkpt>
      <trkpt lat="48.324010" lon="12.123158">
        <ele>469.770031</ele>
        <time>2022-11-01T11:14:02.543Z</time>
      </trkpt>
      <trkpt lat="48.324508" lon="12.123339">
        <ele>469.797417</ele>
        <time>2022-11-01T11:14:54.163Z</time>
      </trkpt>
      <trkpt lat="48.324943" lon="12.123634">
        <ele>469.931285</ele>
        <time>2022-11-01T11:15:41.982Z</time>
      </trkpt>
      <trkpt lat="48.325432" lon="12.124140">
        <ele>470.441040</ele>
        <time>2022-11-01T11:16:41.658Z</time>
      </trkpt>
      <trkpt lat="48.325848" lon="12.124863">
        <ele>470.987007</ele>
        <time>2022-11-01T11:17:47.144Z</time>
      </trkpt>
      <trkpt lat="48.325870" lon="12.124912">
        <ele>471.020769</ele>
        <time>2022-11-01T11:17:51.045Z</time>
      </trkpt>
      <trkpt lat="48.325752" lon="12.125040">
        <ele>471.145717</ele>
        <time>2022-11-01T11:18:06.213Z</time>
      </trkpt>
      <trkpt lat="48.325870" lon="12.124912">
        <ele>471.270664</ele>
        <time>2022-11-01T11:18:22.100Z</time>
      </trkpt>
      <trkpt lat="48.326046" lon="12.124693">
        <ele>471.887240</ele>
        <time>2022-11-01T11:18:46.306Z</time>
      </trkpt>
      <trkpt lat="48.326046" lon="12.124693">
        <ele>471.887240</ele>
        <time>2022-11-01T11:18:46.653Z</time>
      </trkpt>
      <trkpt lat="48.325553" lon="12.124010">
        <ele>474.737019</ele>
        <time>2022-11-01T11:20:00.566Z</time>
      </trkpt>
      <trkpt lat="48.325590" lon="12.123801">
        <ele>475.348423</ele>
        <time>2022-11-01T11:20:17.280Z</time>
      </trkpt>
      <trkpt lat="48.325611" lon="12.123679">
        <ele>475.704673</ele>
        <time>2022-11-01T11:20:27.081Z</time>
      </trkpt>
      <trkpt lat="48.325965" lon="12.122254">
        <ele>480.762698</ele>
        <time>2022-11-01T11:22:28.622Z</time>
      </trkpt>
      <trkpt lat="48.326443" lon="12.121219">
        <ele>487.031472</ele>
        <time>2022-11-01T11:24:14.593Z</time>
      </trkpt>
      <trkpt lat="48.326691" lon="12.120270">
        <ele>492.103773</ele>
        <time>2022-11-01T11:25:41.230Z</time>
      </trkpt>
      <trkpt lat="48.326964" lon="12.118920">
        <ele>498.432841</ele>
        <time>2022-11-01T11:27:40.751Z</time>
      </trkpt>
      <trkpt lat="48.327101" lon="12.116709">
        <ele>505.507220</ele>
        <time>2022-11-01T11:30:37.438Z</time>
      </trkpt>
      <trkpt lat="48.327208" lon="12.116276">
        <ele>506.037733</ele>
        <time>2022-11-01T11:31:09.990Z</time>
      </trkpt>
      <trkpt lat="48.327194" lon="12.115908">
        <ele>506.461053</ele>
        <time>2022-11-01T11:31:34.997Z</time>
      </trkpt>
      <trkpt lat="48.327372" lon="12.115584">
        <ele>506.943742</ele>
        <time>2022-11-01T11:32:03.402Z</time>
      </trkpt>
      <trkpt lat="48.327403" lon="12.115331">
        <ele>507.239191</ele>
        <time>2022-11-01T11:32:21.038Z</time>
      </trkpt>
      <trkpt lat="48.327410" lon="12.114839">
        <ele>507.583346</ele>
        <time>2022-11-01T11:32:54.854Z</time>
      </trkpt>
      <trkpt lat="48.327373" lon="12.114486">
        <ele>507.463328</ele>
        <time>2022-11-01T11:33:19.370Z</time>
      </trkpt>
      <trkpt lat="48.327431" lon="12.114159">
        <ele>507.349665</ele>
        <time>2022-11-01T11:33:42.479Z</time>
      </trkpt>
      <trkpt lat="48.327563" lon="12.113812">
        <ele>507.215401</ele>
        <time>2022-11-01T11:34:09.635Z</time>
      </trkpt>
      <trkpt lat="48.327697" lon="12.113401">
        <ele>507.061666</ele>
        <time>2022-11-01T11:34:40.475Z</time>
      </trkpt>
      <trkpt lat="48.327697" lon="12.113401">
        <ele>507.061666</ele>
        <time>2022-11-01T11:34:41.283Z</time>
      </trkpt>
      <trkpt lat="48.328879" lon="12.113951">
        <ele>507.321866</ele>
        <time>2022-11-01T11:36:47.236Z</time>
      </trkpt>
      <trkpt lat="48.329323" lon="12.114147">
        <ele>507.806224</ele>
        <time>2022-11-01T11:37:37.075Z</time>
      </trkpt>
      <trkpt lat="48.329434" lon="12.114292">
        <ele>507.960115</ele>
        <time>2022-11-01T11:37:53.465Z</time>
      </trkpt>
      <trkpt lat="48.329494" lon="12.114362">
        <ele>508.039598</ele>
        <time>2022-11-01T11:38:01.986Z</time>
      </trkpt>
      <trkpt lat="48.329535" lon="12.114374">
        <ele>508.083320</ele>
        <time>2022-11-01T11:38:06.238Z</time>
      </trkpt>
      <trkpt lat="48.329586" lon="12.114338">
        <ele>508.142290</ele>
        <time>2022-11-01T11:38:12.160Z</time>
      </trkpt>
      <trkpt lat="48.329586" lon="12.114338">
        <ele>508.142290</ele>
        <time>2022-11-01T11:38:12.274Z</time>
      </trkpt>
      <trkpt lat="48.329719" lon="12.114512">
        <ele>508.326801</ele>
        <time>2022-11-01T11:38:31.191Z</time>
      </trkpt>
      <trkpt lat="48.329910" lon="12.114903">
        <ele>508.434724</ele>
        <time>2022-11-01T11:39:04.100Z</time>
      </trkpt>
      <trkpt lat="48.330310" lon="12.115394">
        <ele>506.794266</ele>
        <time>2022-11-01T11:39:56.778Z</time>
      </trkpt>
      <trkpt lat="48.330310" lon="12.115394">
        <ele>506.794266</ele>
        <time>2022-11-01T11:39:57.080Z</time>
      </trkpt>
      <trkpt lat="48.330547" lon="12.115325">
        <ele>506.027254</ele>
        <time>2022-11-01T11:40:22.407Z</time>
      </trkpt>
      <trkpt lat="48.330688" lon="12.115657">
        <ele>505.195050</ele>
        <time>2022-11-01T11:40:50.592Z</time>
      </trkpt>
      <trkpt lat="48.330633" lon="12.116700">
        <ele>502.984885</ele>
        <time>2022-11-01T11:42:07.137Z</time>
      </trkpt>
      <trkpt lat="48.330230" lon="12.118959">
        <ele>491.131467</ele>
        <time>2022-11-01T11:45:07.663Z</time>
      </trkpt>
      <trkpt lat="48.330107" lon="12.119299">
        <ele>489.148008</ele>
        <time>2022-11-01T11:45:38.080Z</time>
      </trkpt>
      <trkpt lat="48.330067" lon="12.119407">
        <ele>488.593769</ele>
        <time>2022-11-01T11:45:47.935Z</time>
      </trkpt>
      <trkpt lat="48.330392" lon="12.119950">
        <ele>485.425957</ele>
        <time>2022-11-01T11:46:44.886Z</time>
      </trkpt>
      <trkpt lat="48.331101" lon="12.120827">
        <ele>479.439516</ele>
        <time>2022-11-01T11:48:28.929Z</time>
      </trkpt>
      <trkpt lat="48.331101" lon="12.120827">
        <ele>479.439516</ele>
        <time>2022-11-01T11:48:29.802Z</time>
      </trkpt>
      <trkpt lat="48.331101" lon="12.120827">
        <ele>479.439516</ele>
        <time>2022-11-01T11:48:30.410Z</time>
      </trkpt>
      <trkpt lat="48.331197" lon="12.120844">
        <ele>478.809126</ele>
        <time>2022-11-01T11:48:41.248Z</time>
      </trkpt>
      <trkpt lat="48.331356" lon="12.120873">
        <ele>477.764608</ele>
        <time>2022-11-01T11:48:58.844Z</time>
      </trkpt>
      <trkpt lat="48.331509" lon="12.120990">
        <ele>477.255172</ele>
        <time>2022-11-01T11:49:17.419Z</time>
      </trkpt>
      <trkpt lat="48.331805" lon="12.121377">
        <ele>477.081116</ele>
        <time>2022-11-01T11:49:58.535Z</time>
      </trkpt>
      <trkpt lat="48.332805" lon="12.121687">
        <ele>476.627983</ele>
        <time>2022-11-01T11:51:41.657Z</time>
      </trkpt>
      <trkpt lat="48.332900" lon="12.121687">
        <ele>476.585821</ele>
        <time>2022-11-01T11:51:52.319Z</time>
      </trkpt>
      <trkpt lat="48.332900" lon="12.121687">
        <ele>476.585821</ele>
        <time>2022-11-01T11:51:52.650Z</time>
      </trkpt>
      <trkpt lat="48.332911" lon="12.121786">
        <ele>476.556207</ele>
        <time>2022-11-01T11:51:59.748Z</time>
      </trkpt>
      <trkpt lat="48.333003" lon="12.122028">
        <ele>476.644256</ele>
        <time>2022-11-01T11:52:19.609Z</time>
      </trkpt>
      <trkpt lat="48.333165" lon="12.122272">
        <ele>477.172535</ele>
        <time>2022-11-01T11:52:44.838Z</time>
      </trkpt>
      <trkpt lat="48.333842" lon="12.122866">
        <ele>478.978581</ele>
        <time>2022-11-01T11:54:10.582Z</time>
      </trkpt>
      <trkpt lat="48.333884" lon="12.122941">
        <ele>479.128806</ele>
        <time>2022-11-01T11:54:18.004Z</time>
      </trkpt>
      <trkpt lat="48.333984" lon="12.122996">
        <ele>479.374163</ele>
        <time>2022-11-01T11:54:30.103Z</time>
      </trkpt>
      <trkpt lat="48.336071" lon="12.125191">
        <ele>483.301567</ele>
        <time>2022-11-01T11:59:01.558Z</time>
      </trkpt>
      <trkpt lat="48.336073" lon="12.125242">
        <ele>483.248854</ele>
        <time>2022-11-01T11:59:05.093Z</time>
      </trkpt>
      <trkpt lat="48.336085" lon="12.125116">
        <ele>483.117520</ele>
        <time>2022-11-01T11:59:13.859Z</time>
      </trkpt>
      <trkpt lat="48.336073" lon="12.125242">
        <ele>482.986186</ele>
        <time>2022-11-01T11:59:22.795Z</time>
      </trkpt>
      <trkpt lat="48.336023" lon="12.125656">
        <ele>482.552028</ele>
        <time>2022-11-01T11:59:51.244Z</time>
      </trkpt>
      <trkpt lat="48.336046" lon="12.126404">
        <ele>481.779415</ele>
        <time>2022-11-01T12:00:43.549Z</time>
      </trkpt>
      <trkpt lat="48.336071" lon="12.126719">
        <ele>481.452090</ele>
        <time>2022-11-01T12:01:05.557Z</time>
      </trkpt>
      <trkpt lat="48.336080" lon="12.126829">
        <ele>481.337736</ele>
        <time>2022-11-01T12:01:13.684Z</time>
      </trkpt>
      <trkpt lat="48.336094" lon="12.127957">
        <ele>479.548315</ele>
        <time>2022-11-01T12:02:34.814Z</time>
      </trkpt>
      <trkpt lat="48.335569" lon="12.129761">
        <ele>475.531535</ele>
        <time>2022-11-01T12:04:54.971Z</time>
      </trkpt>
      <trkpt lat="48.335488" lon="12.129994">
        <ele>475.232913</ele>
        <time>2022-11-01T12:05:12.983Z</time>
      </trkpt>
      <trkpt lat="48.335453" lon="12.130110">
        <ele>475.179072</ele>
        <time>2022-11-01T12:05:21.678Z</time>
      </trkpt>
      <trkpt lat="48.335453" lon="12.130110">
        <ele>475.179072</ele>
        <time>2022-11-01T12:05:21.796Z</time>
      </trkpt>
      <trkpt lat="48.335411" lon="12.130245">
        <ele>475.116074</ele>
        <time>2022-11-01T12:05:32.117Z</time>
      </trkpt>
      <trkpt lat="48.335382" lon="12.130309">
        <ele>475.083337</ele>
        <time>2022-11-01T12:05:37.369Z</time>
      </trkpt>
      <trkpt lat="48.335612" lon="12.130407">
        <ele>474.931351</ele>
        <time>2022-11-01T12:06:01.730Z</time>
      </trkpt>
      <trkpt lat="48.336004" lon="12.130461">
        <ele>474.681077</ele>
        <time>2022-11-01T12:06:41.577Z</time>
      </trkpt>
      <trkpt lat="48.336134" lon="12.130463">
        <ele>474.598419</ele>
        <time>2022-11-01T12:06:54.877Z</time>
      </trkpt>
      <trkpt lat="48.336296" lon="12.130467">
        <ele>474.495406</ele>
        <time>2022-11-01T12:07:11.313Z</time>
      </trkpt>
      <trkpt lat="48.336298" lon="12.130558">
        <ele>474.456924</ele>
        <time>2022-11-01T12:07:17.452Z</time>
      </trkpt>
      <trkpt lat="48.336298" lon="12.130558">
        <ele>474.456924</ele>
        <time>2022-11-01T12:07:17.549Z</time>
      </trkpt>
      <trkpt lat="48.336752" lon="12.130636">
        <ele>474.166397</ele>
        <time>2022-11-01T12:08:04.243Z</time>
      </trkpt>
      <trkpt lat="48.337717" lon="12.130612">
        <ele>473.136632</ele>
        <time>2022-11-01T12:09:41.293Z</time>
      </trkpt>
      <trkpt lat="48.337875" lon="12.130605">
        <ele>472.966279</ele>
        <time>2022-11-01T12:09:57.561Z</time>
      </trkpt>
      <trkpt lat="48.337875" lon="12.130605">
        <ele>472.966279</ele>
        <time>2022-11-01T12:09:58.290Z</time>
      </trkpt>
      <trkpt lat="48.338466" lon="12.130581">
        <ele>472.329116</ele>
        <time>2022-11-01T12:10:59.511Z</time>
      </trkpt>
      <trkpt lat="48.338466" lon="12.130581">
        <ele>472.329116</ele>
        <time>2022-11-01T12:11:00.242Z</time>
      </trkpt>
      <trkpt lat="48.338479" lon="12.130758">
        <ele>472.188244</ele>
        <time>2022-11-01T12:11:12.248Z</time>
      </trkpt>
      <trkpt lat="48.338506" lon="12.131155">
        <ele>471.571725</ele>
        <time>2022-11-01T12:11:40.683Z</time>
      </trkpt>
      <trkpt lat="48.338513" lon="12.131488">
        <ele>471.057024</ele>
        <time>2022-11-01T12:12:03.850Z</time>
      </trkpt>
      <trkpt lat="48.338541" lon="12.131918">
        <ele>470.389547</ele>
        <time>2022-11-01T12:12:34.420Z</time>
      </trkpt>
      <trkpt lat="48.338541" lon="12.131918">
        <ele>470.389547</ele>
        <time>2022-11-01T12:12:34.535Z</time>
      </trkpt>
      <trkpt lat="48.338675" lon="12.131914">
        <ele>470.078059</ele>
        <time>2022-11-01T12:12:48.376Z</time>
      </trkpt>
      <trkpt lat="48.338736" lon="12.131861">
        <ele>469.914345</ele>
        <time>2022-11-01T12:12:56.311Z</time>
      </trkpt>
      <trkpt lat="48.338874" lon="12.131782">
        <ele>469.571187</ele>
        <time>2022-11-01T12:13:11.551Z</time>
      </trkpt>
      <trkpt lat="48.339734" lon="12.131731">
        <ele>467.935528</ele>
        <time>2022-11-01T12:14:41.453Z</time>
      </trkpt>
      <trkpt lat="48.340121" lon="12.131789">
        <ele>467.745072</ele>
        <time>2022-11-01T12:15:21.529Z</time>
      </trkpt>
      <trkpt lat="48.340684" lon="12.132058">
        <ele>467.455794</ele>
        <time>2022-11-01T12:16:20.690Z</time>
      </trkpt>
      <trkpt lat="48.340843" lon="12.132153">
        <ele>467.372014</ele>
        <time>2022-11-01T12:16:37.911Z</time>
      </trkpt>
      <trkpt lat="48.340843" lon="12.132153">
        <ele>467.372014</ele>
        <time>2022-11-01T12:16:38.009Z</time>
      </trkpt>
      <trkpt lat="48.341030" lon="12.132233">
        <ele>467.276808</ele>
        <time>2022-11-01T12:16:57.469Z</time>
      </trkpt>
      <trkpt lat="48.341221" lon="12.132259">
        <ele>467.182891</ele>
        <time>2022-11-01T12:17:17.090Z</time>
      </trkpt>
      <trkpt lat="48.341249" lon="12.132259">
        <ele>467.169179</ele>
        <time>2022-11-01T12:17:19.947Z</time>
      </trkpt>
      <trkpt lat="48.341322" lon="12.132245">
        <ele>467.163126</ele>
        <time>2022-11-01T12:17:27.454Z</time>
      </trkpt>
      <trkpt lat="48.341828" lon="12.132031">
        <ele>467.313939</ele>
        <time>2022-11-01T12:18:20.649Z</time>
      </trkpt>
      <trkpt lat="48.341828" lon="12.132031">
        <ele>467.313939</ele>
        <time>2022-11-01T12:18:20.992Z</time>
      </trkpt>
      <trkpt lat="48.341852" lon="12.132082">
        <ele>467.325857</ele>
        <time>2022-11-01T12:18:25.526Z</time>
      </trkpt>
      <trkpt lat="48.341888" lon="12.132212">
        <ele>467.352716</ele>
        <time>2022-11-01T12:18:35.190Z</time>
      </trkpt>
      <trkpt lat="48.341852" lon="12.132082">
        <ele>467.379575</ele>
        <time>2022-11-01T12:18:44.811Z</time>
      </trkpt>
      <trkpt lat="48.341828" lon="12.132031">
        <ele>467.391492</ele>
        <time>2022-11-01T12:18:49.060Z</time>
      </trkpt>
      <trkpt lat="48.341828" lon="12.132031">
        <ele>467.391492</ele>
        <time>2022-11-01T12:18:49.294Z</time>
      </trkpt>
      <trkpt lat="48.342256" lon="12.131792">
        <ele>467.522484</ele>
        <time>2022-11-01T12:19:35.999Z</time>
      </trkpt>
      <trkpt lat="48.342277" lon="12.131780">
        <ele>467.528929</ele>
        <time>2022-11-01T12:19:38.492Z</time>
      </trkpt>
      <trkpt lat="48.342896" lon="12.131481">
        <ele>467.668130</ele>
        <time>2022-11-01T12:20:43.933Z</time>
      </trkpt>
      <trkpt lat="48.343201" lon="12.131471">
        <ele>467.668130</ele>
        <time>2022-11-01T12:21:14.570Z</time>
      </trkpt>
      <trkpt lat="48.343250" lon="12.131508">
        <ele>467.668130</ele>
        <time>2022-11-01T12:21:20.332Z</time>
      </trkpt>
      <trkpt lat="48.343260" lon="12.131473">
        <ele>467.668130</ele>
        <time>2022-11-01T12:21:22.907Z</time>
      </trkpt>
      <trkpt lat="48.343306" lon="12.131314">
        <ele>467.668130</ele>
        <time>2022-11-01T12:21:34.537Z</time>
      </trkpt>
      <trkpt lat="48.343437" lon="12.130843">
        <ele>467.668130</ele>
        <time>2022-11-01T12:22:09.005Z</time>
      </trkpt>
      <trkpt lat="48.343456" lon="12.130774">
        <ele>467.668130</ele>
        <time>2022-11-01T12:22:14.030Z</time>
      </trkpt>
      <trkpt lat="48.343505" lon="12.130598">
        <ele>467.668130</ele>
        <time>2022-11-01T12:22:26.938Z</time>
      </trkpt>
      <trkpt lat="48.343505" lon="12.130598">
        <ele>467.668130</ele>
        <time>2022-11-01T12:22:26.993Z</time>
      </trkpt>
      <trkpt lat="48.343624" lon="12.130727">
        <ele>467.668130</ele>
        <time>2022-11-01T12:22:41.932Z</time>
      </trkpt>
      <trkpt lat="48.343744" lon="12.130783">
        <ele>467.668130</ele>
        <time>2022-11-01T12:22:54.582Z</time>
      </trkpt>
      <trkpt lat="48.343937" lon="12.130796">
        <ele>467.668130</ele>
        <time>2022-11-01T12:23:14.319Z</time>
      </trkpt>
      <trkpt lat="48.344073" lon="12.130808">
        <ele>467.668130</ele>
        <time>2022-11-01T12:23:28.078Z</time>
      </trkpt>
      <trkpt lat="48.344212" lon="12.130812">
        <ele>467.668130</ele>
        <time>2022-11-01T12:23:42.238Z</time>
      </trkpt>
      <trkpt lat="48.344239" lon="12.130814">
        <ele>467.668130</ele>
        <time>2022-11-01T12:23:44.935Z</time>
      </trkpt>
    </trkseg>
  </trk>
</gpx>